Time;durP1;ratioP1;P1;durP2;ratioP2;P2;SDS_P1;SDS_P2;PMS_P1;PMS_P2;Temp;Humidity;BMP_temperature;BMP_pressure;BME280_temperature;BME280_humidity;BME280_pressure;Samples;Min_cycle;Max_cycle;Signal;HPM_P1;HPM_P2
2023/08/01 00:02:19;;;;;;;0.88;0.88;;;10.90;99.90;;;;;;5053276;28;20229;-83
2023/08/01 00:04:45;;;;;;;0.50;0.50;;;10.90;99.90;;;;;;5050382;28;20209;-83
2023/08/01 00:07:11;;;;;;;0.50;0.50;;;10.80;99.90;;;;;;5036769;28;20672;-83
2023/08/01 00:09:36;;;;;;;0.40;0.40;;;10.80;99.90;;;;;;5054561;28;20198;-83
2023/08/01 00:12:02;;;;;;;0.50;0.50;;;10.80;99.90;;;;;;5037430;28;20683;-83
2023/08/01 00:14:28;;;;;;;0.50;0.50;;;10.80;99.90;;;;;;5036925;28;20193;-83
2023/08/01 00:16:54;;;;;;;0.50;0.50;;;10.80;99.90;;;;;;5037167;28;20220;-84
2023/08/01 00:19:19;;;;;;;0.50;0.50;;;10.80;99.90;;;;;;5036799;28;20201;-83
2023/08/01 00:21:46;;;;;;;0.47;0.47;;;10.80;99.90;;;;;;5053456;28;20193;-83
2023/08/01 00:24:12;;;;;;;0.90;0.90;;;10.80;99.90;;;;;;5055076;28;20692;-85
2023/08/01 00:26:38;;;;;;;0.57;0.57;;;10.80;99.90;;;;;;5036890;28;20342;-84
2023/08/01 00:29:04;;;;;;;0.95;0.73;;;10.80;99.90;;;;;;5055136;28;20220;-85
2023/08/01 00:31:29;;;;;;;0.50;0.50;;;10.90;99.90;;;;;;5054483;28;20272;-85
2023/08/01 00:33:55;;;;;;;0.60;0.60;;;10.80;99.90;;;;;;5037000;28;20610;-85
2023/08/01 00:36:21;;;;;;;0.57;0.57;;;10.80;99.90;;;;;;5036357;28;20206;-86
2023/08/01 00:38:47;;;;;;;0.70;0.70;;;10.80;99.90;;;;;;5037009;28;20189;-85
2023/08/01 00:41:12;;;;;;;0.50;0.50;;;10.80;99.90;;;;;;5036815;28;20197;-86
2023/08/01 00:43:38;;;;;;;0.90;0.90;;;10.70;99.90;;;;;;5054240;28;20213;-87
2023/08/01 00:46:05;;;;;;;0.52;0.52;;;10.70;99.90;;;;;;5036787;28;20545;-87
2023/08/01 00:48:32;;;;;;;0.65;0.65;;;10.60;99.90;;;;;;5035992;28;20267;-86
2023/08/01 00:51:00;;;;;;;0.50;0.50;;;10.60;99.90;;;;;;5047109;28;20200;-87
2023/08/01 00:53:27;;;;;;;0.60;0.60;;;10.60;99.90;;;;;;5053171;28;20198;-86
2023/08/01 00:55:54;;;;;;;0.65;0.65;;;10.50;99.90;;;;;;5052822;28;20233;-85
2023/08/01 00:58:20;;;;;;;0.50;0.50;;;10.50;99.90;;;;;;5052948;28;20201;-86
2023/08/01 01:00:46;;;;;;;0.60;0.60;;;10.50;99.90;;;;;;5056645;28;20615;-82
2023/08/01 01:03:12;;;;;;;0.60;0.60;;;10.50;99.90;;;;;;5081903;22;20188;-71
2023/08/01 01:05:46;;;;;;;0.50;0.50;;;10.50;99.90;;;;;;5084095;28;20261;-75
2023/08/01 01:08:12;;;;;;;0.50;0.50;;;10.50;99.90;;;;;;5086230;28;20199;-75
2023/08/01 01:10:38;;;;;;;0.50;0.50;;;10.50;99.90;;;;;;5075680;28;20696;-75
2023/08/01 01:13:04;;;;;;;0.50;0.50;;;10.50;99.90;;;;;;5093774;28;20196;-74
2023/08/01 01:15:29;;;;;;;0.60;0.60;;;10.50;99.90;;;;;;5075937;28;20196;-75
2023/08/01 01:17:55;;;;;;;0.50;0.50;;;10.50;99.90;;;;;;5093736;28;20557;-74
2023/08/01 01:20:26;;;;;;;0.50;0.50;;;10.50;99.90;;;;;;5094039;28;20265;-74
2023/08/01 01:22:55;;;;;;;0.50;0.50;;;10.50;99.90;;;;;;5094142;28;20188;-75
2023/08/01 01:25:22;;;;;;;0.63;0.63;;;10.40;99.90;;;;;;5093884;28;20192;-74
2023/08/01 01:27:51;;;;;;;0.60;0.60;;;10.40;99.90;;;;;;5094303;28;20560;-74
2023/08/01 01:30:18;;;;;;;0.60;0.60;;;10.40;99.90;;;;;;5076020;28;20192;-75
2023/08/01 01:32:44;;;;;;;0.50;0.50;;;10.40;99.90;;;;;;5093995;28;20650;-74
2023/08/01 01:35:10;;;;;;;0.60;0.60;;;10.40;99.90;;;;;;5094339;28;20222;-75
2023/08/01 01:37:36;;;;;;;0.90;0.90;;;10.40;99.90;;;;;;5093604;28;20239;-75
2023/08/01 01:40:01;;;;;;;0.40;0.40;;;10.40;99.90;;;;;;5093793;28;20329;-74
2023/08/01 01:42:27;;;;;;;0.60;0.60;;;10.40;99.90;;;;;;5093615;28;20271;-75
2023/08/01 01:44:53;;;;;;;0.50;0.50;;;10.50;99.90;;;;;;5093699;28;20180;-75
2023/08/01 01:47:19;;;;;;;0.50;0.50;;;10.40;99.90;;;;;;5093453;28;20192;-74
2023/08/01 01:49:45;;;;;;;0.55;0.55;;;10.40;99.90;;;;;;5093651;28;20709;-74
2023/08/01 01:52:10;;;;;;;0.60;0.60;;;10.40;99.90;;;;;;5093847;28;20220;-75
2023/08/01 01:54:36;;;;;;;0.60;0.60;;;10.30;99.90;;;;;;5093340;28;20192;-74
2023/08/01 01:57:02;;;;;;;0.60;0.60;;;10.30;99.90;;;;;;5075375;28;20215;-76
2023/08/01 01:59:28;;;;;;;0.68;0.68;;;10.30;99.90;;;;;;5092016;28;20200;-75
2023/08/01 02:01:53;;;;;;;0.60;0.60;;;10.20;99.90;;;;;;5075329;28;20188;-75
2023/08/01 02:04:19;;;;;;;0.50;0.50;;;10.20;99.90;;;;;;5093067;28;20682;-74
2023/08/01 02:06:45;;;;;;;0.55;0.55;;;10.10;99.90;;;;;;5078492;28;20706;-74
2023/08/01 02:09:11;;;;;;;0.50;0.50;;;10.10;99.90;;;;;;5093544;28;20325;-74
2023/08/01 02:11:36;;;;;;;0.50;0.50;;;10.10;99.90;;;;;;5093274;28;20304;-74
2023/08/01 02:14:03;;;;;;;0.60;0.60;;;10.10;99.90;;;;;;5093388;28;20184;-77
2023/08/01 02:16:28;;;;;;;0.50;0.50;;;10.00;99.90;;;;;;5075025;28;20749;-76
2023/08/01 02:18:54;;;;;;;0.50;0.50;;;10.00;99.90;;;;;;5093139;28;20275;-74
2023/08/01 02:21:20;;;;;;;0.63;0.63;;;10.00;99.90;;;;;;5093125;28;20670;-74
2023/08/01 02:23:46;;;;;;;0.60;0.60;;;10.00;99.90;;;;;;5093618;28;20217;-69
2023/08/01 02:26:11;;;;;;;0.60;0.60;;;10.00;99.90;;;;;;5093342;28;20275;-70
2023/08/01 02:28:37;;;;;;;0.60;0.60;;;9.90;99.90;;;;;;5093125;28;20224;-69
2023/08/01 02:31:03;;;;;;;0.60;0.60;;;9.90;99.90;;;;;;5092037;28;20200;-69
2023/08/01 02:33:29;;;;;;;0.57;0.57;;;9.90;99.90;;;;;;5092648;28;20279;-70
2023/08/01 02:35:54;;;;;;;0.60;0.60;;;10.00;99.90;;;;;;5071199;28;20200;-69
2023/08/01 02:38:20;;;;;;;0.60;0.60;;;10.00;99.90;;;;;;5072097;28;20643;-69
2023/08/01 02:40:46;;;;;;;0.60;0.60;;;9.90;99.90;;;;;;5072872;28;20610;-69
2023/08/01 02:43:11;;;;;;;0.50;0.50;;;9.90;99.90;;;;;;5072793;28;20197;-70
2023/08/01 02:45:37;;;;;;;0.70;0.70;;;10.00;99.90;;;;;;5071930;28;20197;-69
2023/08/01 02:48:03;;;;;;;0.50;0.50;;;10.00;99.90;;;;;;5073151;28;20205;-69
2023/08/01 02:50:29;;;;;;;0.60;0.60;;;10.00;99.90;;;;;;5081233;28;20537;-69
2023/08/01 02:52:54;;;;;;;0.65;0.65;;;10.00;99.90;;;;;;5092714;28;20199;-69
2023/08/01 02:55:20;;;;;;;0.60;0.60;;;10.00;99.90;;;;;;5092581;28;20188;-69
2023/08/01 02:57:46;;;;;;;0.40;0.40;;;10.10;99.90;;;;;;5075068;28;20576;-70
2023/08/01 03:00:12;;;;;;;0.60;0.60;;;10.00;99.90;;;;;;5093464;28;20196;-69
2023/08/01 03:02:39;;;;;;;0.50;0.50;;;10.00;99.90;;;;;;5092404;28;20245;-69
2023/08/01 03:05:08;;;;;;;0.50;0.50;;;10.00;99.90;;;;;;5092547;28;20670;-70
2023/08/01 03:07:33;;;;;;;0.70;0.70;;;10.00;99.90;;;;;;5093204;28;20192;-69
2023/08/01 03:09:59;;;;;;;0.55;0.55;;;10.00;99.90;;;;;;5075104;28;20223;-69
2023/08/01 03:12:25;;;;;;;0.60;0.60;;;10.00;99.90;;;;;;5078533;28;20200;-69
2023/08/01 03:14:51;;;;;;;0.60;0.60;;;10.00;99.90;;;;;;5079083;28;20200;-69
2023/08/01 03:17:16;;;;;;;0.50;0.50;;;9.90;99.90;;;;;;5097201;28;20209;-69
2023/08/01 03:19:43;;;;;;;0.60;0.60;;;9.90;99.90;;;;;;5096987;28;20184;-69
2023/08/01 03:22:10;;;;;;;0.60;0.60;;;9.90;99.90;;;;;;5078676;28;20208;-69
2023/08/01 03:24:36;;;;;;;0.60;0.60;;;9.90;99.90;;;;;;5075369;28;20299;-69
2023/08/01 03:27:03;;;;;;;0.60;0.60;;;9.90;99.90;;;;;;5075436;28;20667;-69
2023/08/01 03:29:28;;;;;;;0.50;0.50;;;9.90;99.90;;;;;;5075216;28;20193;-69
2023/08/01 03:31:54;;;;;;;0.60;0.60;;;9.90;99.90;;;;;;5091749;28;20207;-69
2023/08/01 03:34:20;;;;;;;0.60;0.60;;;10.00;99.90;;;;;;5096950;28;20207;-70
2023/08/01 03:36:45;;;;;;;0.50;0.50;;;10.00;99.90;;;;;;5096824;28;20240;-70
2023/08/01 03:39:11;;;;;;;0.60;0.60;;;10.10;99.90;;;;;;5096881;28;20186;-69
2023/08/01 03:41:37;;;;;;;0.52;0.52;;;10.10;99.90;;;;;;5096827;28;20184;-69
2023/08/01 03:44:03;;;;;;;0.52;0.52;;;10.20;99.90;;;;;;5078899;28;20193;-69
2023/08/01 03:46:30;;;;;;;0.57;0.57;;;10.20;99.90;;;;;;5096762;28;20196;-69
2023/08/01 03:48:55;;;;;;;0.60;0.60;;;10.30;99.90;;;;;;5096650;28;20193;-69
2023/08/01 03:51:21;;;;;;;0.57;0.57;;;10.40;99.90;;;;;;5078385;28;20207;-70
2023/08/01 03:53:47;;;;;;;0.50;0.50;;;10.50;99.90;;;;;;5096823;28;20207;-69
2023/08/01 03:56:13;;;;;;;0.60;0.60;;;10.50;99.90;;;;;;5095448;28;20599;-69
2023/08/01 03:58:39;;;;;;;0.82;0.80;;;10.60;99.90;;;;;;5094187;28;20235;-70
2023/08/01 04:01:06;;;;;;;0.50;0.50;;;10.70;99.90;;;;;;5094667;28;20240;-70
2023/08/01 04:03:32;;;;;;;0.80;0.80;;;10.80;99.90;;;;;;5094649;28;20295;-69
2023/08/01 04:05:58;;;;;;;0.60;0.60;;;10.90;99.90;;;;;;5085448;28;20655;-70
2023/08/01 04:08:23;;;;;;;0.50;0.50;;;11.10;99.90;;;;;;5073905;28;20204;-70
2023/08/01 04:10:52;;;;;;;0.50;0.50;;;11.20;99.90;;;;;;5074881;28;20189;-69
2023/08/01 04:13:18;;;;;;;0.40;0.40;;;11.30;99.90;;;;;;5074609;28;20204;-70
2023/08/01 04:15:43;;;;;;;0.60;0.60;;;11.40;99.90;;;;;;5074239;28;20200;-69
2023/08/01 04:18:09;;;;;;;0.50;0.50;;;11.50;99.90;;;;;;5090928;28;20671;-69
2023/08/01 04:20:35;;;;;;;0.50;0.50;;;11.60;99.90;;;;;;5094241;28;20199;-69
2023/08/01 04:23:00;;;;;;;0.47;0.47;;;11.70;99.90;;;;;;5093335;28;20220;-70
2023/08/01 04:25:27;;;;;;;0.57;0.57;;;11.80;99.90;;;;;;5094434;28;20679;-71
2023/08/01 04:27:53;;;;;;;0.40;0.40;;;11.80;99.90;;;;;;5076334;28;20192;-75
2023/08/01 04:30:19;;;;;;;0.47;0.47;;;12.00;99.90;;;;;;5094364;28;20207;-73
2023/08/01 04:32:45;;;;;;;0.80;0.80;;;12.00;99.90;;;;;;5076579;28;20200;-72
2023/08/01 04:35:11;;;;;;;0.50;0.50;;;12.20;99.90;;;;;;5094360;28;20219;-74
2023/08/01 04:37:36;;;;;;;0.52;0.52;;;12.20;99.90;;;;;;5094667;28;20215;-73
2023/08/01 04:40:03;;;;;;;0.50;0.50;;;12.30;99.90;;;;;;5093980;28;20188;-74
2023/08/01 04:42:29;;;;;;;0.50;0.50;;;12.40;99.90;;;;;;5076847;28;20199;-74
2023/08/01 04:44:54;;;;;;;0.50;0.50;;;12.40;99.90;;;;;;5095141;28;20188;-68
2023/08/01 04:47:21;;;;;;;0.52;0.52;;;12.50;99.90;;;;;;5094196;28;20192;-69
2023/08/01 04:49:46;;;;;;;0.40;0.40;;;12.60;99.90;;;;;;5094858;28;20565;-69
2023/08/01 04:52:12;;;;;;;0.40;0.40;;;12.90;99.90;;;;;;5076857;28;20200;-69
2023/08/01 04:54:38;;;;;;;0.40;0.40;;;13.10;99.90;;;;;;5094708;28;20208;-68
2023/08/01 04:57:04;;;;;;;0.43;0.43;;;13.30;99.90;;;;;;5094470;28;20227;-69
2023/08/01 04:59:30;;;;;;;0.50;0.50;;;13.60;99.90;;;;;;5076616;28;20188;-68
2023/08/01 05:01:56;;;;;;;0.50;0.50;;;13.70;99.90;;;;;;5094561;28;20191;-68
2023/08/01 05:04:22;;;;;;;0.95;0.95;;;13.80;99.90;;;;;;5094568;28;20352;-69
2023/08/01 05:06:47;;;;;;;0.40;0.40;;;13.90;99.90;;;;;;5078974;28;20205;-69
2023/08/01 05:09:13;;;;;;;0.75;0.63;;;14.10;99.90;;;;;;5074287;28;20196;-69
2023/08/01 05:11:39;;;;;;;0.40;0.40;;;14.20;99.90;;;;;;5074147;28;20197;-69
2023/08/01 05:14:05;;;;;;;1.75;0.95;;;14.40;99.90;;;;;;5087812;28;20578;-69
2023/08/01 05:16:31;;;;;;;0.50;0.50;;;14.60;99.90;;;;;;5094055;28;20211;-70
2023/08/01 05:18:57;;;;;;;0.40;0.40;;;14.80;99.90;;;;;;5094364;28;20185;-69
2023/08/01 05:21:22;;;;;;;0.30;0.30;;;15.10;99.90;;;;;;5094148;28;20676;-68
2023/08/01 05:23:48;;;;;;;0.50;0.50;;;15.10;99.90;;;;;;5075687;28;20196;-69
2023/08/01 05:26:14;;;;;;;0.40;0.40;;;15.30;99.90;;;;;;5093913;28;20598;-69
2023/08/01 05:28:40;;;;;;;0.40;0.40;;;15.40;99.90;;;;;;5075981;28;20200;-68
2023/08/01 05:31:05;;;;;;;1.00;0.63;;;15.50;99.90;;;;;;5094221;28;20274;-69
2023/08/01 05:33:31;;;;;;;0.88;0.82;;;15.60;99.90;;;;;;5092347;28;20575;-68
2023/08/01 05:35:57;;;;;;;0.30;0.30;;;15.60;99.90;;;;;;5075786;28;20204;-69
2023/08/01 05:38:23;;;;;;;8.57;1.05;;;15.60;99.90;;;;;;5093817;28;20200;-69
2023/08/01 05:40:48;;;;;;;0.40;0.40;;;15.60;99.90;;;;;;5093909;28;20267;-68
2023/08/01 05:43:15;;;;;;;0.30;0.30;;;15.80;99.90;;;;;;5094022;28;20192;-68
2023/08/01 05:45:41;;;;;;;0.30;0.30;;;15.90;99.90;;;;;;5093826;28;20207;-68
2023/08/01 05:48:10;;;;;;;0.65;0.40;;;16.00;99.90;;;;;;5093822;28;20218;-70
2023/08/01 05:50:36;;;;;;;0.50;0.50;;;16.30;99.90;;;;;;5075390;28;20188;-69
2023/08/01 05:53:02;;;;;;;0.35;0.35;;;16.50;99.90;;;;;;5093584;28;20204;-68
2023/08/01 05:55:27;;;;;;;0.50;0.50;;;16.50;99.90;;;;;;5093539;28;20195;-70
2023/08/01 05:57:53;;;;;;;0.47;0.47;;;16.60;99.90;;;;;;5093586;28;20200;-68
2023/08/01 06:00:21;;;;;;;0.60;0.60;;;16.70;99.90;;;;;;5075330;28;20196;-70
2023/08/01 06:02:46;;;;;;;0.30;0.30;;;17.00;99.90;;;;;;5093263;28;20647;-68
2023/08/01 06:05:12;;;;;;;0.40;0.40;;;17.10;99.90;;;;;;5092463;28;20220;-69
2023/08/01 06:07:38;;;;;;;0.40;0.40;;;17.20;99.90;;;;;;5093463;28;20200;-69
2023/08/01 06:10:10;;;;;;;0.30;0.30;;;17.10;99.90;;;;;;5093386;28;20196;-69
2023/08/01 06:12:36;;;;;;;0.30;0.30;;;17.20;99.90;;;;;;5075331;28;20200;-69
2023/08/01 06:15:02;;;;;;;0.35;0.35;;;17.30;99.90;;;;;;5093352;28;20214;-69
2023/08/01 06:17:32;;;;;;;0.32;0.32;;;17.40;99.90;;;;;;5093216;28;20215;-69
2023/08/01 06:20:04;;;;;;;0.82;0.65;;;17.40;99.90;;;;;;5075174;28;20703;-69
2023/08/01 06:22:30;;;;;;;0.30;0.30;;;17.40;99.90;;;;;;5074884;28;20283;-69
2023/08/01 06:24:56;;;;;;;0.20;0.20;;;17.30;99.90;;;;;;5074827;28;20265;-70
2023/08/01 06:27:22;;;;;;;0.30;0.30;;;17.20;99.90;;;;;;5093036;28;20627;-70
2023/08/01 06:29:47;;;;;;;0.65;0.65;;;17.20;99.90;;;;;;5093170;28;20203;-70
2023/08/01 06:32:13;;;;;;;0.20;0.20;;;17.10;99.90;;;;;;5093061;28;20188;-70
2023/08/01 06:34:39;;;;;;;1.15;0.70;;;17.00;99.90;;;;;;5092899;28;20203;-70
2023/08/01 06:37:05;;;;;;;0.30;0.30;;;17.10;99.90;;;;;;5093041;28;20216;-69
2023/08/01 06:39:30;;;;;;;1.50;0.90;;;17.00;99.90;;;;;;5092961;28;20188;-70
2023/08/01 06:41:56;;;;;;;0.30;0.30;;;17.00;99.90;;;;;;5092928;28;20180;-69
2023/08/01 06:44:22;;;;;;;0.30;0.30;;;17.00;99.90;;;;;;5092861;28;20192;-69
2023/08/01 06:46:48;;;;;;;0.47;0.47;;;17.00;99.90;;;;;;5095056;28;20241;-69
2023/08/01 06:49:13;;;;;;;0.20;0.20;;;17.30;99.90;;;;;;5097310;28;20200;-69
2023/08/01 06:51:39;;;;;;;0.57;0.57;;;17.70;99.90;;;;;;5078705;28;20200;-68
2023/08/01 06:54:05;;;;;;;0.52;0.50;;;18.20;99.90;;;;;;5097118;28;20200;-69
2023/08/01 06:56:30;;;;;;;0.47;0.47;;;18.20;99.90;;;;;;5096854;28;20196;-69
2023/08/01 06:58:56;;;;;;;0.20;0.20;;;18.00;99.90;;;;;;5097019;28;20227;-69
2023/08/01 07:01:22;;;;;;;0.30;0.30;;;17.60;99.90;;;;;;5096591;28;20199;-69
2023/08/01 07:03:48;;;;;;;0.35;0.35;;;17.30;99.90;;;;;;5096760;28;20643;-69
2023/08/01 07:06:13;;;;;;;0.30;0.30;;;17.10;99.90;;;;;;5096249;28;20295;-69
2023/08/01 07:08:39;;;;;;;0.47;0.47;;;17.20;99.90;;;;;;5096227;28;20199;-71
2023/08/01 07:11:05;;;;;;;0.40;0.40;;;17.30;99.90;;;;;;5096593;28;20191;-70
2023/08/01 07:13:30;;;;;;;0.30;0.30;;;17.50;99.90;;;;;;5095323;28;20616;-73
2023/08/01 07:15:56;;;;;;;0.43;0.43;;;17.60;99.90;;;;;;5096435;28;20282;-73
2023/08/01 07:18:22;;;;;;;0.30;0.30;;;17.70;99.90;;;;;;5096419;28;20206;-73
2023/08/01 07:20:48;;;;;;;0.30;0.30;;;17.70;99.90;;;;;;5096417;28;20192;-73
2023/08/01 07:23:13;;;;;;;0.45;0.45;;;17.50;99.90;;;;;;5096153;28;20247;-72
2023/08/01 07:25:39;;;;;;;0.30;0.30;;;17.40;99.90;;;;;;5096160;28;20199;-73
2023/08/01 07:28:05;;;;;;;0.20;0.20;;;17.30;99.90;;;;;;5096446;28;20519;-73
2023/08/01 07:30:31;;;;;;;0.20;0.20;;;17.30;99.90;;;;;;5096477;28;20596;-74
2023/08/01 07:32:56;;;;;;;0.50;0.50;;;17.30;99.90;;;;;;5096358;28;20184;-73
2023/08/01 07:35:22;;;;;;;0.25;0.25;;;17.40;99.90;;;;;;5096005;28;20192;-73
2023/08/01 07:37:48;;;;;;;0.20;0.20;;;17.50;99.90;;;;;;5096199;28;20207;-73
2023/08/01 07:40:13;;;;;;;0.55;0.50;;;17.60;99.90;;;;;;5096278;28;20185;-74
2023/08/01 07:42:39;;;;;;;0.60;0.60;;;17.60;99.90;;;;;;5095909;28;20206;-73
2023/08/01 07:45:07;;;;;;;0.50;0.50;;;17.50;99.90;;;;;;5095746;28;20222;-73
2023/08/01 07:47:32;;;;;;;0.30;0.30;;;17.50;99.90;;;;;;5095859;28;20188;-73
2023/08/01 07:49:58;;;;;;;0.30;0.30;;;17.60;99.90;;;;;;5096142;28;20277;-74
2023/08/01 07:52:24;;;;;;;0.20;0.20;;;17.70;99.90;;;;;;5095504;28;20195;-73
2023/08/01 07:54:49;;;;;;;0.30;0.30;;;17.90;99.90;;;;;;5095991;28;20188;-74
2023/08/01 07:57:15;;;;;;;0.30;0.30;;;18.50;99.90;;;;;;5096000;28;20208;-73
2023/08/01 07:59:41;;;;;;;0.50;0.50;;;18.80;99.90;;;;;;5096046;28;20223;-73
2023/08/01 08:02:06;;;;;;;0.50;0.35;;;18.80;99.90;;;;;;5076922;28;20732;-75
2023/08/01 08:04:32;;;;;;;0.40;0.40;;;19.00;99.90;;;;;;5095643;28;20227;-74
2023/08/01 08:06:59;;;;;;;0.50;0.50;;;19.70;99.90;;;;;;5076537;28;20219;-75
2023/08/01 08:09:26;;;;;;;0.20;0.20;;;19.80;99.90;;;;;;5095057;28;20647;-73
2023/08/01 08:11:52;;;;;;;0.43;0.43;;;19.70;99.90;;;;;;5095104;28;20188;-73
2023/08/01 08:14:20;;;;;;;0.43;0.43;;;19.60;99.90;;;;;;5094252;28;20239;-71
2023/08/01 08:16:46;;;;;;;0.38;0.38;;;20.00;99.90;;;;;;5095012;28;20204;-70
2023/08/01 08:19:15;;;;;;;0.28;0.28;;;20.80;99.90;;;;;;5077558;28;20203;-70
2023/08/01 08:21:41;;;;;;;0.20;0.20;;;21.20;99.90;;;;;;5077207;28;20558;-71
2023/08/01 08:24:15;;;;;;;0.30;0.30;;;21.20;99.90;;;;;;5077388;28;20188;-70
2023/08/01 08:26:41;;;;;;;0.20;0.20;;;21.00;99.90;;;;;;5095107;28;20338;-69
2023/08/01 08:29:07;;;;;;;0.20;0.20;;;21.30;99.90;;;;;;5093890;28;20200;-70
2023/08/01 08:31:33;;;;;;;0.40;0.40;;;21.20;99.90;;;;;;5095234;28;20196;-70
2023/08/01 08:33:58;;;;;;;0.20;0.20;;;21.10;99.90;;;;;;5095200;28;20208;-70
2023/08/01 08:36:24;;;;;;;0.17;0.17;;;21.20;99.90;;;;;;5094658;28;20208;-70
2023/08/01 08:38:50;;;;;;;0.20;0.20;;;21.30;99.90;;;;;;5093389;28;20279;-70
2023/08/01 08:41:21;;;;;;;0.32;0.30;;;21.30;99.90;;;;;;5094148;28;20192;-70
2023/08/01 08:43:48;;;;;;;0.30;0.30;;;21.10;99.90;;;;;;5094527;28;20557;-71
2023/08/01 08:46:16;;;;;;;0.20;0.20;;;20.80;99.90;;;;;;5094149;28;20188;-70
2023/08/01 08:48:44;;;;;;;0.50;0.50;;;20.60;99.90;;;;;;5094353;28;20265;-70
2023/08/01 08:51:10;;;;;;;0.28;0.28;;;20.40;99.90;;;;;;5094194;28;20196;-70
2023/08/01 08:53:37;;;;;;;0.20;0.20;;;20.20;99.90;;;;;;5094095;28;20536;-70
2023/08/01 08:56:04;;;;;;;0.22;0.22;;;20.10;99.90;;;;;;5094842;28;20196;-71
2023/08/01 08:58:31;;;;;;;0.38;0.38;;;20.10;99.90;;;;;;5076021;28;20667;-71
2023/08/01 09:01:00;;;;;;;0.30;0.30;;;20.20;99.90;;;;;;5094666;28;20607;-71
2023/08/01 09:03:26;;;;;;;0.20;0.20;;;20.20;99.90;;;;;;5094009;28;20222;-71
2023/08/01 09:06:04;;;;;;;0.57;0.57;;;20.30;99.90;;;;;;5076153;28;20193;-71
2023/08/01 09:08:32;;;;;;;0.30;0.30;;;21.00;99.90;;;;;;5093826;28;20196;-71
2023/08/01 09:10:58;;;;;;;0.20;0.20;;;22.00;99.90;;;;;;5094404;28;20593;-71
2023/08/01 09:13:24;;;;;;;0.20;0.20;;;23.20;99.90;;;;;;5076004;28;20191;-71
2023/08/01 09:15:51;;;;;;;0.20;0.20;;;23.70;99.90;;;;;;5094470;28;20229;-71
2023/08/01 09:18:17;;;;;;;0.20;0.20;;;24.00;99.90;;;;;;5076261;28;20192;-71
2023/08/01 09:20:47;;;;;;;1.95;0.40;;;24.00;99.90;;;;;;5094789;28;20203;-71
2023/08/01 09:23:13;;;;;;;0.20;0.20;;;23.50;99.90;;;;;;5094483;28;20196;-71
2023/08/01 09:25:40;;;;;;;0.20;0.20;;;23.90;99.90;;;;;;5094273;28;20200;-70
2023/08/01 09:28:35;;;;;;;0.22;0.22;;;24.50;99.90;;;;;;5094150;28;20673;-71
2023/08/01 09:31:01;;;;;;;0.10;0.10;;;24.00;99.90;;;;;;5080856;28;20303;-71
2023/08/01 09:33:41;;;;;;;0.10;0.10;;;24.50;99.90;;;;;;5093864;28;20242;-71
2023/08/01 09:36:10;;;;;;;0.20;0.20;;;24.70;99.90;;;;;;5094042;28;20204;-70
2023/08/01 09:38:37;;;;;;;0.10;0.10;;;25.10;99.90;;;;;;5093034;28;20699;-70
2023/08/01 09:41:06;;;;;;;0.10;0.10;;;25.30;99.90;;;;;;5093875;28;20291;-69
2023/08/01 09:43:36;;;;;;;0.20;0.20;;;25.10;99.90;;;;;;5075246;28;20249;-71
2023/08/01 09:46:02;;;;;;;0.32;0.32;;;24.70;99.90;;;;;;5092865;28;20176;-70
2023/08/01 09:48:30;;;;;;;0.10;0.10;;;24.70;99.90;;;;;;5094013;28;20547;-71
2023/08/01 09:51:09;;;;;;;0.50;0.30;;;24.30;99.90;;;;;;5093522;28;20192;-70
2023/08/01 09:53:46;;;;;;;0.10;0.10;;;24.00;99.90;;;;;;5074856;28;20203;-68
2023/08/01 09:56:16;;;;;;;3.00;0.60;;;23.50;99.90;;;;;;5092904;28;20207;-70
2023/08/01 09:58:43;;;;;;;16.63;0.55;;;23.20;99.90;;;;;;5074664;28;20192;-70
2023/08/01 10:01:09;;;;;;;0.20;0.20;;;22.90;99.90;;;;;;5092983;28;20188;-70
2023/08/01 10:03:34;;;;;;;0.20;0.20;;;22.30;99.90;;;;;;5092653;28;20701;-70
2023/08/01 10:06:01;;;;;;;0.20;0.20;;;21.80;99.90;;;;;;5083507;28;20214;-70
2023/08/01 10:08:29;;;;;;;0.20;0.20;;;21.60;99.90;;;;;;5072668;28;20220;-70
2023/08/01 10:10:56;;;;;;;0.28;0.28;;;21.50;99.90;;;;;;5072988;28;20185;-71
2023/08/01 10:13:26;;;;;;;0.20;0.20;;;21.40;99.90;;;;;;5072901;28;20189;-70
2023/08/01 10:15:53;;;;;;;0.30;0.30;;;21.40;99.90;;;;;;5071743;28;20199;-70
2023/08/01 10:18:19;;;;;;;0.10;0.10;;;21.60;99.90;;;;;;5071849;28;20208;-70
2023/08/01 10:20:47;;;;;;;0.20;0.20;;;21.70;99.90;;;;;;5072467;28;20193;-70
2023/08/01 10:23:13;;;;;;;0.20;0.20;;;21.90;99.90;;;;;;5073212;28;20314;-70
2023/08/01 10:25:39;;;;;;;0.20;0.20;;;22.40;99.90;;;;;;5071731;28;20676;-70
2023/08/01 10:28:06;;;;;;;0.20;0.20;;;22.60;99.90;;;;;;5072977;28;20557;-70
2023/08/01 10:30:32;;;;;;;0.20;0.20;;;22.60;99.90;;;;;;5073004;28;20201;-70
2023/08/01 10:32:59;;;;;;;0.20;0.20;;;22.40;99.90;;;;;;5073128;28;20196;-71
2023/08/01 10:35:52;;;;;;;0.10;0.10;;;22.20;99.90;;;;;;5074159;28;20200;-73
2023/08/01 10:38:17;;;;;;;0.13;0.13;;;22.00;99.90;;;;;;5089946;28;20614;-73
2023/08/01 10:40:43;;;;;;;0.20;0.20;;;21.80;99.90;;;;;;5093075;28;20278;-72
2023/08/01 10:43:23;;;;;;;0.30;0.30;;;21.80;99.90;;;;;;5092824;28;20200;-74
2023/08/01 10:45:59;;;;;;;0.15;0.15;;;21.90;99.90;;;;;;5092295;28;20666;-73
2023/08/01 10:48:25;;;;;;;0.30;0.30;;;21.90;99.90;;;;;;5092142;28;20271;-72
2023/08/01 10:50:57;;;;;;;0.30;0.30;;;21.30;99.90;;;;;;5075451;28;20228;-73
2023/08/01 10:53:23;;;;;;;0.38;0.38;;;21.20;99.90;;;;;;5075343;28;20274;-73
2023/08/01 10:55:49;;;;;;;0.25;0.25;;;21.10;99.90;;;;;;5093361;28;20200;-73
2023/08/01 10:58:15;;;;;;;0.20;0.20;;;21.00;99.90;;;;;;5093781;28;20253;-73
2023/08/01 11:00:44;;;;;;;0.30;0.30;;;21.00;99.90;;;;;;5093057;28;20275;-73
2023/08/01 11:03:10;;;;;;;0.28;0.28;;;21.10;99.90;;;;;;5093246;28;20200;-73
2023/08/01 11:05:36;;;;;;;0.25;0.25;;;21.40;99.90;;;;;;5087487;28;20656;-74
2023/08/01 11:08:03;;;;;;;0.20;0.20;;;21.70;99.90;;;;;;5073119;28;20200;-73
2023/08/01 11:10:31;;;;;;;0.43;0.30;;;22.60;99.90;;;;;;5073062;28;20608;-73
2023/08/01 11:12:57;;;;;;;1.10;0.45;;;23.10;99.90;;;;;;5073311;28;20667;-73
2023/08/01 11:15:24;;;;;;;0.28;0.25;;;22.90;99.90;;;;;;5072786;28;20193;-73
2023/08/01 11:17:54;;;;;;;0.15;0.15;;;23.10;99.90;;;;;;5073003;28;20220;-73
2023/08/01 11:20:22;;;;;;;0.15;0.15;;;23.50;99.90;;;;;;5071315;28;20197;-73
2023/08/01 11:23:00;;;;;;;0.10;0.10;;;23.70;99.90;;;;;;5072870;28;20597;-74
2023/08/01 11:25:43;;;;;;;0.40;0.40;;;23.60;99.90;;;;;;5072762;28;20196;-70
2023/08/01 11:28:14;;;;;;;0.55;0.47;;;23.30;99.90;;;;;;5073031;28;20189;-70
2023/08/01 11:30:40;;;;;;;0.20;0.20;;;23.10;99.90;;;;;;5084919;28;20200;-70
2023/08/01 11:33:22;;;;;;;0.30;0.20;;;22.90;99.90;;;;;;5095741;28;20203;-71
2023/08/01 11:35:53;;;;;;;0.20;0.20;;;21.90;99.90;;;;;;5078712;28;20196;-71
2023/08/01 11:38:21;;;;;;;0.20;0.20;;;21.70;99.90;;;;;;5096607;28;20211;-71
2023/08/01 11:40:49;;;;;;;0.32;0.32;;;21.30;99.90;;;;;;5096705;28;20214;-71
2023/08/01 11:43:15;;;;;;;0.47;0.47;;;21.10;99.90;;;;;;5078378;28;20199;-71
2023/08/01 11:45:59;;;;;;;0.50;0.50;;;21.00;99.90;;;;;;5096320;28;20194;-72
2023/08/01 11:48:25;;;;;;;0.45;0.32;;;21.20;99.90;;;;;;5096401;28;20537;-69
2023/08/01 11:51:01;;;;;;;0.20;0.20;;;21.70;99.90;;;;;;5095857;28;20671;-69
2023/08/01 11:53:28;;;;;;;0.35;0.35;;;22.40;99.90;;;;;;5095784;28;20195;-70
2023/08/01 11:55:56;;;;;;;0.20;0.20;;;22.30;99.90;;;;;;5095261;28;20283;-69
2023/08/01 11:58:33;;;;;;;3.90;0.40;;;21.90;99.90;;;;;;5095828;28;20682;-69
2023/08/01 12:01:09;;;;;;;0.10;0.10;;;21.60;99.90;;;;;;5095887;28;20260;-69
2023/08/01 12:03:49;;;;;;;0.10;0.10;;;21.10;99.90;;;;;;5074181;28;20311;-69
2023/08/01 12:06:17;;;;;;;0.20;0.20;;;20.80;99.90;;;;;;5075206;28;20203;-69
2023/08/01 12:08:44;;;;;;;0.32;0.32;;;20.60;99.90;;;;;;5075791;28;20193;-69
2023/08/01 12:11:20;;;;;;;0.40;0.38;;;20.70;99.90;;;;;;5075029;28;20197;-68
2023/08/01 12:13:46;;;;;;;0.20;0.20;;;20.70;99.90;;;;;;5075600;28;20193;-69
2023/08/01 12:16:15;;;;;;;0.20;0.20;;;20.70;99.90;;;;;;5057299;28;20201;-69
2023/08/01 12:18:42;;;;;;;0.20;0.20;;;20.60;99.90;;;;;;5075280;28;20192;-69
2023/08/01 12:21:08;;;;;;;0.32;0.32;;;20.40;99.90;;;;;;5057191;28;20197;-68
2023/08/01 12:23:36;;;;;;;0.40;0.40;;;20.20;99.90;;;;;;5056807;28;20200;-70
2023/08/01 12:26:01;;;;;;;0.15;0.15;;;20.20;99.90;;;;;;5057113;28;20205;-69
2023/08/01 12:28:28;;;;;;;0.20;0.20;;;20.30;99.90;;;;;;5074781;28;20189;-69
2023/08/01 12:30:53;;;;;;;0.20;0.20;;;20.30;99.90;;;;;;5074906;28;20221;-71
2023/08/01 12:33:21;;;;;;;0.38;0.38;;;20.40;99.90;;;;;;5074823;28;20232;-70
2023/08/01 12:35:47;;;;;;;0.30;0.30;;;20.40;99.90;;;;;;5074717;28;20212;-69
2023/08/01 12:38:12;;;;;;;4.30;0.68;;;20.60;99.90;;;;;;5074332;28;20243;-71
2023/08/01 12:40:38;;;;;;;0.50;0.50;;;20.90;99.90;;;;;;5074340;28;20667;-68
2023/08/01 12:43:05;;;;;;;0.40;0.40;;;21.00;99.90;;;;;;5073568;28;20185;-69
2023/08/01 12:45:31;;;;;;;0.22;0.22;;;21.10;99.90;;;;;;5055819;28;20196;-69
2023/08/01 12:47:56;;;;;;;0.55;0.40;;;21.30;99.90;;;;;;5073773;28;20576;-69